Time;durP1;ratioP1;P1;durP2;ratioP2;P2;SDS_P1;SDS_P2;PMS_P1;PMS_P2;Temp;Humidity;BMP_temperature;BMP_pressure;BME280_temperature;BME280_humidity;BME280_pressure;Samples;Min_cycle;Max_cycle;Signal;HPM_P1;HPM_P2
2023/02/22 00:00:18;;;;;;;23.65;14.30;;;;;;;11.67;47.18;99421.88;5012003;28;20026;-81
2023/02/22 00:02:47;;;;;;;23.27;14.10;;;;;;;11.35;47.30;99381.69;5012201;28;20022;-81
2023/02/22 00:05:18;;;;;;;20.40;13.73;;;;;;;11.16;47.14;99358.50;5010912;28;20018;-81
2023/02/22 00:07:46;;;;;;;24.67;13.10;;;;;;;11.64;47.01;99423.06;5012131;28;20026;-81
2023/02/22 00:10:13;;;;;;;20.95;13.90;;;;;;;11.69;46.68;99425.16;5010832;28;20510;-81
2023/02/22 00:12:42;;;;;;;23.85;14.13;;;;;;;11.06;47.69;99337.63;5011993;28;20036;-81
2023/02/22 00:15:08;;;;;;;24.00;13.82;;;;;;;11.61;46.64;99422.63;5012061;28;20030;-81
2023/02/22 00:17:34;;;;;;;25.42;14.15;;;;;;;11.08;47.19;99350.66;5012069;28;20044;-81
2023/02/22 00:20:00;;;;;;;23.05;14.82;;;;;;;11.29;47.34;99384.25;5010539;28;20499;-80
2023/02/22 00:22:25;;;;;;;25.50;18.15;;;;;;;11.27;46.92;99392.38;5011673;28;20490;-81
2023/02/22 00:24:50;;;;;;;31.80;20.45;;;;;;;11.34;46.81;99409.13;5011915;28;20473;-81
2023/02/22 00:27:16;;;;;;;31.95;20.13;;;;;;;11.22;46.83;99410.63;5010625;28;20022;-80
2023/02/22 00:29:45;;;;;;;25.98;18.90;;;;;;;10.87;46.71;99369.09;5011313;28;20034;-81
2023/02/22 00:32:11;;;;;;;31.85;20.90;;;;;;;10.86;45.93;99351.59;5011868;28;20018;-81
2023/02/22 00:34:36;;;;;;;32.65;20.55;;;;;;;10.54;46.04;99302.66;5011683;28;20029;-81
2023/02/22 00:37:03;;;;;;;34.45;20.63;;;;;;;11.03;46.54;99392.66;5011741;28;20033;-81
2023/02/22 00:39:29;;;;;;;32.90;21.00;;;;;;;10.30;46.63;99303.75;5011536;28;20097;-81
2023/02/22 00:41:55;;;;;;;28.30;19.73;;;;;;;10.81;46.45;99358.25;5011564;28;20050;-80
2023/02/22 00:44:21;;;;;;;28.75;18.27;;;;;;;10.56;45.91;99306.75;5011722;28;20455;-81
2023/02/22 00:46:48;;;;;;;26.92;18.13;;;;;;;11.17;46.47;99414.81;5011973;28;20025;-81
2023/02/22 00:49:14;;;;;;;28.77;19.25;;;;;;;10.78;46.40;99360.47;5010297;28;20026;-81
2023/02/22 00:51:40;;;;;;;28.52;18.77;;;;;;;10.77;46.22;99401.06;5011583;28;20025;-81
2023/02/22 00:54:05;;;;;;;37.13;24.75;;;;;;;10.16;46.61;99279.78;5011446;28;20025;-81
2023/02/22 00:56:36;;;;;;;29.42;21.63;;;;;;;9.96;45.98;99276.03;5011611;28;20018;-81
2023/02/22 00:59:02;;;;;;;26.50;18.02;;;;;;;10.35;46.07;99338.31;5011439;28;20105;-81
2023/02/22 01:01:28;;;;;;;25.35;19.25;;;;;;;10.68;46.72;99413.53;5011410;28;20562;-81
2023/02/22 01:03:53;;;;;;;22.67;16.48;;;;;;;9.99;46.65;99314.44;5011327;28;20104;-81
2023/02/22 01:06:19;;;;;;;22.58;16.20;;;;;;;10.23;46.57;99374.06;5011276;28;20032;-81
2023/02/22 01:08:46;;;;;;;21.40;14.23;;;;;;;10.33;46.68;99395.75;5011363;28;20050;-81
2023/02/22 01:11:14;;;;;;;17.95;13.73;;;;;;;10.19;46.95;99395.50;5011356;28;20033;-81
2023/02/22 01:13:40;;;;;;;17.42;13.80;;;;;;;9.80;46.44;99345.56;5011260;28;20105;-81
2023/02/22 01:16:07;;;;;;;16.02;12.35;;;;;;;10.25;46.78;99424.84;5009867;28;20056;-81
2023/02/22 01:18:34;;;;;;;17.92;11.93;;;;;;;9.49;46.80;99307.91;5009847;28;20411;-81
2023/02/22 01:21:00;;;;;;;16.73;12.18;;;;;;;9.45;46.33;99296.91;5011087;28;20109;-81
2023/02/22 01:23:26;;;;;;;17.80;11.98;;;;;;;9.95;46.11;99393.09;5010990;28;20045;-81
2023/02/22 01:25:51;;;;;;;20.50;13.73;;;;;;;10.14;46.31;99426.88;5011149;28;20411;-81
2023/02/22 01:28:17;;;;;;;16.75;13.02;;;;;;;9.32;46.16;99294.03;5011181;28;20025;-81
2023/02/22 01:30:42;;;;;;;17.83;12.90;;;;;;;9.56;45.75;99361.56;5011260;28;20025;-80
2023/02/22 01:33:08;;;;;;;17.50;11.57;;;;;;;9.37;46.04;99333.84;5010994;28;20026;-80
2023/02/22 01:35:36;;;;;;;17.88;13.27;;;;;;;9.92;46.01;99435.63;5009883;28;20068;-80
2023/02/22 01:38:01;;;;;;;13.38;10.98;;;;;;;9.81;46.08;99439.50;5009949;28;20101;-82
2023/02/22 01:40:32;;;;;;;11.65;9.25;;;;;;;9.71;45.98;99424.91;5012673;28;20029;-81
2023/02/22 01:43:01;;;;;;;14.15;9.90;;;;;;;9.69;45.78;99430.34;5013494;28;20024;-81
2023/02/22 01:45:31;;;;;;;12.10;8.68;;;;;;;9.66;45.78;99429.84;5014573;28;20026;-81
2023/02/22 01:48:11;;;;;;;14.15;9.38;;;;;;;9.49;45.52;99434.41;5014656;28;20030;-81
2023/02/22 01:50:41;;;;;;;12.95;9.20;;;;;;;9.31;46.14;99424.13;5013388;28;20038;-81
2023/02/22 01:53:09;;;;;;;13.75;9.45;;;;;;;8.94;45.63;99376.59;5014438;28;20153;-82
2023/02/22 01:55:35;;;;;;;15.77;11.38;;;;;;;8.76;46.15;99355.72;5013111;28;20410;-81
2023/02/22 01:58:03;;;;;;;31.65;20.10;;;;;;;8.29;45.92;99288.13;5013109;28;20017;-82
2023/02/22 02:00:29;;;;;;;25.30;16.05;;;;;;;8.83;45.93;99389.09;5014511;28;20507;-81
2023/02/22 02:03:05;;;;;;;17.02;12.60;;;;;;;8.91;45.79;99373.28;5014409;28;20022;-81
2023/02/22 02:05:33;;;;;;;16.42;11.48;;;;;;;7.48;45.98;99152.47;5013174;28;20033;-82
2023/02/22 02:08:04;;;;;;;12.93;8.95;;;;;;;9.00;45.63;99371.44;5013044;28;20082;-81
2023/02/22 02:10:30;;;;;;;13.15;9.43;;;;;;;8.89;45.77;99351.56;5014087;28;20022;-82
2023/02/22 02:12:57;;;;;;;11.60;9.35;;;;;;;8.83;45.79;99368.03;5014015;28;20495;-81
2023/02/22 02:15:29;;;;;;;10.07;8.10;;;;;;;9.26;45.79;99421.19;5014156;28;20053;-82
2023/02/22 02:17:59;;;;;;;13.90;9.75;;;;;;;9.15;45.58;99393.44;5013155;28;20545;-82
2023/02/22 02:20:27;;;;;;;14.60;9.45;;;;;;;9.29;45.42;99418.22;5014016;28;20057;-81
2023/02/22 02:22:56;;;;;;;14.38;8.75;;;;;;;9.33;45.79;99416.88;5012464;28;20516;-82
2023/02/22 02:26:02;;;;;;;16.52;9.88;;;;;;;9.36;45.90;99419.16;5012652;28;20410;-82
2023/02/22 02:28:37;;;;;;;16.77;12.07;;;;;;;9.35;45.73;99430.69;5012564;28;20507;-81
2023/02/22 02:31:30;;;;;;;16.30;10.60;;;;;;;9.37;45.55;99436.63;5013736;28;20049;-81
2023/02/22 02:34:04;;;;;;;21.80;13.48;;;;;;;8.88;45.67;99362.25;5013546;28;20505;-81
2023/02/22 02:36:51;;;;;;;23.17;15.23;;;;;;;9.41;45.88;99427.38;5013515;28;20443;-81
2023/02/22 02:39:27;;;;;;;24.60;16.10;;;;;;;8.54;46.15;99308.13;5013720;28;20014;-81
2023/02/22 02:41:52;;;;;;;21.55;14.30;;;;;;;8.41;45.84;99307.84;5013784;28;20105;-81
2023/02/22 02:44:40;;;;;;;22.65;13.27;;;;;;;9.31;45.80;99426.78;5013682;28;20127;-81
2023/02/22 02:47:35;;;;;;;13.02;9.95;;;;;;;9.09;45.90;99390.66;5013680;28;20461;-81
2023/02/22 02:50:15;;;;;;;15.95;11.48;;;;;;;9.29;45.65;99428.75;5012762;28;20070;-82
2023/02/22 02:52:44;;;;;;;17.13;9.90;;;;;;;8.69;45.59;99338.97;5012960;28;20495;-82
2023/02/22 02:55:10;;;;;;;14.65;10.25;;;;;;;8.72;45.43;99344.72;5013398;28;20083;-82
2023/02/22 02:57:37;;;;;;;12.05;10.30;;;;;;;8.50;45.72;99312.09;5013421;28;20025;-81
2023/02/22 03:00:23;;;;;;;14.38;9.98;;;;;;;8.91;45.93;99370.63;5012073;28;20022;-82
2023/02/22 03:03:06;;;;;;;15.10;10.80;;;;;;;9.25;45.63;99438.00;5013261;28;20034;-82
2023/02/22 03:05:51;;;;;;;15.73;10.07;;;;;;;9.22;46.07;99435.72;5013312;28;20044;-80
2023/02/22 03:08:28;;;;;;;15.77;10.63;;;;;;;9.23;45.60;99438.16;5011862;28;20117;-81
2023/02/22 03:11:16;;;;;;;17.50;10.85;;;;;;;9.22;45.58;99441.78;5013109;28;20499;-81
2023/02/22 03:13:56;;;;;;;13.88;9.45;;;;;;;9.11;45.53;99439.53;5012972;28;20396;-82
2023/02/22 03:16:44;;;;;;;10.40;8.20;;;;;;;9.02;45.60;99442.38;5011650;28;20100;-81
2023/02/22 03:19:23;;;;;;;13.35;8.00;;;;;;;9.01;45.49;99443.38;5011722;28;20057;-81
2023/02/22 03:22:24;;;;;;;10.52;8.15;;;;;;;8.97;45.85;99455.22;5011386;28;20510;-82
2023/02/22 03:25:05;;;;;;;10.93;8.27;;;;;;;8.98;45.73;99452.44;5004988;28;20495;-81
2023/02/22 03:27:42;;;;;;;11.27;8.40;;;;;;;8.69;45.51;99404.78;5012774;28;20030;-82
2023/02/22 03:30:15;;;;;;;13.88;8.50;;;;;;;8.37;45.46;99355.69;5011461;28;20018;-82
2023/02/22 03:32:45;;;;;;;9.88;7.70;;;;;;;8.78;45.49;99420.38;5012845;28;20030;-82
2023/02/22 03:35:17;;;;;;;13.00;8.52;;;;;;;8.35;45.27;99362.94;5012671;28;20026;-82
2023/02/22 03:37:45;;;;;;;12.90;7.72;;;;;;;7.81;45.31;99265.38;5012635;28;20030;-82
2023/02/22 03:40:24;;;;;;;12.13;9.60;;;;;;;8.82;45.83;99420.88;5012740;28;20034;-82
2023/02/22 03:42:58;;;;;;;16.58;10.68;;;;;;;8.28;45.32;99344.34;5011252;28;20040;-82
2023/02/22 03:45:25;;;;;;;15.40;11.35;;;;;;;9.07;45.32;99456.69;5011151;28;20026;-82
2023/02/22 03:48:09;;;;;;;18.60;11.85;;;;;;;8.41;45.73;99349.94;5012439;28;20033;-82
2023/02/22 03:50:36;;;;;;;16.73;11.93;;;;;;;8.09;45.43;99311.31;5012483;28;20026;-81
2023/02/22 03:53:02;;;;;;;15.80;12.15;;;;;;;8.51;45.39;99381.31;5012503;28;20048;-82
2023/02/22 03:55:30;;;;;;;18.13;12.23;;;;;;;8.55;45.77;99395.78;5012313;28;20033;-82
2023/02/22 03:57:59;;;;;;;18.75;13.55;;;;;;;8.95;45.58;99457.22;5012210;28;20089;-81
2023/02/22 04:00:29;;;;;;;17.20;12.77;;;;;;;7.50;45.98;99228.47;5011024;28;20030;-82
2023/02/22 04:02:55;;;;;;;16.02;13.25;;;;;;;8.86;45.90;99457.22;5011836;28;20030;-81
2023/02/22 04:05:23;;;;;;;19.75;16.77;;;;;;;8.05;45.53;99336.31;5010372;28;20410;-82
2023/02/22 04:07:49;;;;;;;21.90;15.23;;;;;;;8.71;46.04;99451.00;5012235;28;20034;-81
2023/02/22 04:10:15;;;;;;;13.00;11.15;;;;;;;7.90;45.83;99344.06;5012037;28;20167;-81
2023/02/22 04:12:41;;;;;;;16.75;12.40;;;;;;;7.87;46.12;99370.66;5010875;28;20032;-83
2023/02/22 04:15:08;;;;;;;12.68;9.13;;;;;;;8.51;46.24;99470.78;5012008;28;20029;-81
2023/02/22 04:17:33;;;;;;;10.65;8.25;;;;;;;8.34;46.22;99451.56;5011890;28;20519;-81
2023/02/22 04:19:59;;;;;;;25.00;19.20;;;;;;;7.74;46.04;99364.25;5012023;28;20112;-82
2023/02/22 04:22:24;;;;;;;20.25;15.48;;;;;;;8.32;46.14;99465.84;5010485;28;20121;-81
2023/02/22 04:24:50;;;;;;;16.25;12.85;;;;;;;7.90;46.12;99425.53;5011843;28;20030;-82
2023/02/22 04:27:15;;;;;;;19.80;13.75;;;;;;;8.10;46.55;99426.03;5011797;28;20037;-82
2023/02/22 04:29:41;;;;;;;20.83;15.60;;;;;;;7.69;46.39;99392.84;5011827;28;20033;-82
2023/02/22 04:32:06;;;;;;;18.10;13.88;;;;;;;7.49;46.40;99366.88;5011825;28;20033;-81
2023/02/22 04:34:32;;;;;;;23.08;17.85;;;;;;;8.24;46.36;99469.28;5011699;28;20499;-82
2023/02/22 04:36:57;;;;;;;17.08;12.02;;;;;;;7.38;46.47;99329.56;5010551;28;20038;-81
2023/02/22 04:39:23;;;;;;;15.55;11.00;;;;;;;8.08;46.21;99438.53;5011767;28;20108;-82
2023/02/22 04:41:48;;;;;;;18.25;11.80;;;;;;;7.78;45.91;99383.97;5011837;28;20067;-81
2023/02/22 04:44:14;;;;;;;14.60;11.23;;;;;;;6.59;46.29;99195.25;5011661;28;20026;-82
2023/02/22 04:46:39;;;;;;;14.32;11.48;;;;;;;7.73;46.38;99384.47;5011492;28;20080;-82
2023/02/22 04:49:05;;;;;;;20.23;13.88;;;;;;;7.94;46.02;99428.66;5011642;28;20030;-81
2023/02/22 04:51:30;;;;;;;22.83;16.08;;;;;;;8.33;45.94;99476.22;5011585;28;20029;-82
2023/02/22 04:53:56;;;;;;;23.27;16.52;;;;;;;7.96;46.11;99424.06;5011349;28;20061;-81
2023/02/22 04:56:22;;;;;;;23.58;16.67;;;;;;;8.29;46.83;99475.69;5011445;28;20469;-82
2023/02/22 04:58:47;;;;;;;23.05;15.55;;;;;;;8.18;46.69;99457.63;5009972;28;20099;-81
2023/02/22 05:01:14;;;;;;;23.90;16.52;;;;;;;8.17;46.63;99448.06;5011508;28;20030;-82
2023/02/22 05:03:39;;;;;;;23.33;16.63;;;;;;;7.52;46.77;99337.66;5012183;28;20042;-81
2023/02/22 05:06:05;;;;;;;24.63;16.83;;;;;;;8.42;46.41;99496.28;5011869;28;20034;-81
2023/02/22 05:08:31;;;;;;;27.42;17.42;;;;;;;8.17;46.64;99413.88;5011636;28;20017;-81
2023/02/22 05:10:56;;;;;;;27.20;18.48;;;;;;;8.00;46.31;99379.88;5011304;28;20040;-82
2023/02/22 05:13:21;;;;;;;24.92;17.83;;;;;;;7.46;46.57;99290.22;5011347;28;20022;-81
2023/02/22 05:15:47;;;;;;;23.25;17.45;;;;;;;7.77;46.46;99358.69;5012090;28;20025;-81
2023/02/22 05:18:13;;;;;;;27.95;18.67;;;;;;;8.39;46.06;99461.59;5013972;28;20462;-82
2023/02/22 05:20:38;;;;;;;36.78;24.38;;;;;;;8.33;46.47;99433.28;5015269;28;20025;-82
2023/02/22 05:23:04;;;;;;;35.35;27.13;;;;;;;8.73;46.43;99485.88;5013696;28;20084;-81
2023/02/22 05:25:30;;;;;;;44.85;32.05;;;;;;;8.76;46.48;99500.50;5013907;28;20502;-81
2023/02/22 05:28:06;;;;;;;44.17;33.88;;;;;;;8.43;46.00;99431.31;5013881;28;20030;-81
2023/02/22 05:30:34;;;;;;;43.78;32.70;;;;;;;8.88;45.90;99499.16;5014937;28;20026;-82
2023/02/22 05:33:00;;;;;;;40.33;31.35;;;;;;;8.93;45.87;99498.69;5015012;28;20032;-82
2023/02/22 05:35:27;;;;;;;44.13;32.13;;;;;;;8.91;45.73;99499.66;5015005;28;20030;-81
2023/02/22 05:37:53;;;;;;;49.28;34.90;;;;;;;8.77;46.06;99481.91;5014825;28;20024;-81
2023/02/22 05:40:22;;;;;;;43.13;30.15;;;;;;;8.83;46.19;99493.59;5014899;28;20105;-82
2023/02/22 05:42:49;;;;;;;82.85;54.88;;;;;;;8.82;46.07;99495.41;5014963;28;20100;-81
2023/02/22 05:45:16;;;;;;;59.75;39.50;;;;;;;8.84;46.36;99497.84;5014693;28;20026;-81
2023/02/22 05:47:42;;;;;;;44.10;31.10;;;;;;;8.79;45.98;99510.69;5014738;28;20095;-81
2023/02/22 05:50:08;;;;;;;36.25;25.80;;;;;;;8.07;46.25;99436.88;5013358;28;20026;-81
2023/02/22 05:52:34;;;;;;;35.05;25.45;;;;;;;8.16;46.22;99419.28;5014598;28;20022;-82
2023/02/22 05:54:59;;;;;;;32.42;23.33;;;;;;;8.14;46.06;99416.00;5014418;28;20032;-82
2023/02/22 05:57:24;;;;;;;29.15;21.20;;;;;;;8.93;46.29;99522.38;5014355;28;20391;-81
2023/02/22 05:59:50;;;;;;;30.00;21.80;;;;;;;8.96;45.94;99520.25;5014670;28;20026;-82
2023/02/22 06:02:15;;;;;;;29.73;21.45;;;;;;;8.73;45.70;99491.13;5014477;28;20029;-81
2023/02/22 06:04:45;;;;;;;31.30;22.73;;;;;;;8.75;45.67;99488.34;5012963;28;20080;-82
2023/02/22 06:07:11;;;;;;;38.10;27.73;;;;;;;8.65;45.74;99483.25;5014177;28;20088;-82
2023/02/22 06:09:36;;;;;;;36.47;23.30;;;;;;;8.12;46.31;99384.63;5014021;28;20029;-82
2023/02/22 06:12:02;;;;;;;38.00;24.63;;;;;;;8.16;45.97;99393.00;5012828;28;20037;-82
2023/02/22 06:14:28;;;;;;;39.28;27.33;;;;;;;8.70;46.01;99477.50;5012737;28;20483;-81
2023/02/22 06:16:55;;;;;;;37.15;26.00;;;;;;;9.17;45.89;99527.59;5012752;28;20083;-82
2023/02/22 06:19:20;;;;;;;35.15;26.17;;;;;;;8.56;45.38;99429.00;5014229;28;20100;-82
2023/02/22 06:21:54;;;;;;;38.78;27.70;;;;;;;9.42;45.79;99531.78;5012746;28;20129;-81
2023/02/22 06:24:21;;;;;;;41.72;27.83;;;;;;;9.51;45.58;99543.94;5013810;28;20442;-81
2023/02/22 06:27:00;;;;;;;43.47;29.10;;;;;;;9.54;45.86;99543.59;5012942;28;20041;-81
2023/02/22 06:29:27;;;;;;;51.40;31.02;;;;;;;9.64;45.56;99543.38;5013894;28;20491;-79
2023/02/22 06:31:53;;;;;;;45.03;30.98;;;;;;;9.25;45.37;99485.41;5000413;28;20101;-80
2023/02/22 06:34:20;;;;;;;51.38;32.55;;;;;;;9.79;45.69;99549.59;4994059;28;20492;-80
2023/02/22 06:36:47;;;;;;;47.42;32.60;;;;;;;9.48;45.53;99483.66;4997702;28;20022;-80
2023/02/22 06:39:17;;;;;;;52.00;33.30;;;;;;;9.90;45.36;99548.38;5002853;28;20030;-80
2023/02/22 06:41:44;;;;;;;49.10;36.03;;;;;;;9.98;45.37;99542.25;4988665;28;20039;-80
2023/02/22 06:44:11;;;;;;;56.70;37.33;;;;;;;8.88;45.25;99368.34;4999628;28;20056;-80
2023/02/22 06:46:37;;;;;;;53.15;37.05;;;;;;;10.04;45.22;99545.00;4995551;28;20418;-82
2023/02/22 06:49:04;;;;;;;51.55;35.00;;;;;;;10.16;45.22;99540.97;5009763;28;20034;-80
2023/02/22 06:51:34;;;;;;;57.40;39.17;;;;;;;10.10;45.57;99517.94;5013380;28;20032;-80
2023/02/22 06:53:59;;;;;;;54.55;38.00;;;;;;;9.79;45.08;99448.59;5011855;28;20029;-80
2023/02/22 06:56:24;;;;;;;59.33;42.13;;;;;;;10.01;45.08;99484.69;4997235;28;20499;-80
2023/02/22 06:58:50;;;;;;;152.70;53.35;;;;;;;10.18;44.78;99478.28;4994294;28;20033;-81
2023/02/22 07:01:15;;;;;;;79.65;42.42;;;;;;;10.31;44.38;99467.16;4993322;28;21019;-80
2023/02/22 07:03:41;;;;;;;98.70;48.50;;;;;;;9.77;44.57;99358.28;4993553;28;20122;-79
2023/02/22 07:06:07;;;;;;;66.40;43.13;;;;;;;10.40;44.37;99462.63;4994608;28;20034;-80
2023/02/22 07:08:32;;;;;;;74.68;43.10;;;;;;;10.48;44.89;99436.19;4993659;28;20030;-79
2023/02/22 07:10:58;;;;;;;58.83;40.67;;;;;;;11.13;44.03;99535.88;4993772;28;20562;-80
2023/02/22 07:13:23;;;;;;;69.20;46.03;;;;;;;10.87;44.68;99462.34;4994906;28;20041;-79
2023/02/22 07:15:48;;;;;;;56.83;40.80;;;;;;;10.56;43.82;99409.72;4993117;28;20412;-80
2023/02/22 07:18:15;;;;;;;69.38;44.55;;;;;;;11.23;44.14;99496.81;4994062;28;20034;-80
2023/02/22 07:20:41;;;;;;;60.92;43.97;;;;;;;11.16;44.23;99464.19;4993224;28;20080;-80
2023/02/22 07:23:07;;;;;;;59.33;41.83;;;;;;;11.60;43.67;99532.06;4993574;28;20046;-80
2023/02/22 07:25:33;;;;;;;59.50;43.25;;;;;;;11.49;44.26;99517.47;5010496;28;20041;-80
2023/02/22 07:27:59;;;;;;;63.65;46.35;;;;;;;11.33;44.11;99476.22;4993300;28;20574;-81
2023/02/22 07:30:29;;;;;;;64.32;43.63;;;;;;;11.07;44.54;99441.50;5005386;28;21104;-82
2023/02/22 07:33:00;;;;;;;62.30;44.50;;;;;;;11.04;44.44;99423.38;5000893;28;20495;-81
2023/02/22 07:35:30;;;;;;;52.75;39.67;;;;;;;11.78;44.55;99524.56;4992989;28;20478;-81
2023/02/22 07:37:56;;;;;;;57.50;42.38;;;;;;;11.84;45.23;99523.00;5009445;28;20037;-82
2023/02/22 07:40:22;;;;;;;60.13;40.47;;;;;;;11.88;44.91;99521.63;5013987;28;20038;-81
2023/02/22 07:42:57;;;;;;;58.85;36.78;;;;;;;11.25;45.36;99404.97;5000491;28;20402;-81
2023/02/22 07:45:24;;;;;;;56.63;34.85;;;;;;;12.01;45.42;99524.44;5010775;28;20176;-81
2023/02/22 07:47:50;;;;;;;55.15;33.45;;;;;;;12.03;45.21;99517.97;5008053;28;20033;-81
2023/02/22 07:50:16;;;;;;;51.55;30.00;;;;;;;12.13;45.39;99517.66;5008267;28;20120;-81
2023/02/22 07:52:50;;;;;;;51.58;30.88;;;;;;;11.80;45.12;99450.31;4993843;28;20042;-80
2023/02/22 07:55:17;;;;;;;52.70;30.45;;;;;;;11.56;45.38;99398.56;4995828;28;20034;-81
2023/02/22 07:57:48;;;;;;;59.88;28.35;;;;;;;11.42;45.93;99374.66;4994286;28;20026;-82
2023/02/22 08:00:20;;;;;;;50.03;27.15;;;;;;;12.32;45.59;99505.59;4986592;28;20022;-81
2023/02/22 08:02:46;;;;;;;;;;;;;;;12.26;46.81;99498.44;4989143;28;20026;-81
2023/02/22 08:05:12;;;;;;;47.45;28.70;;;;;;;11.86;45.80;99431.88;4992616;28;19967;-81
2023/02/22 08:07:38;;;;;;;46.20;27.48;;;;;;;11.80;45.52;99416.75;4991873;28;20022;-81
2023/02/22 08:10:06;;;;;;;63.13;38.60;;;;;;;11.81;45.72;99356.72;4992048;28;20030;-81
2023/02/22 08:12:36;;;;;;;46.25;31.60;;;;;;;12.80;45.68;99503.16;4987620;28;20023;-80
2023/02/22 08:15:03;;;;;;;42.35;27.48;;;;;;;12.84;45.16;99489.34;4978062;28;20062;-79
2023/02/22 08:17:29;;;;;;;34.83;23.95;;;;;;;13.07;45.05;99509.44;4987506;28;20038;-81
2023/02/22 08:19:55;;;;;;;37.97;23.02;;;;;;;13.16;44.89;99501.16;4989975;28;20042;-80
2023/02/22 08:22:21;;;;;;;28.20;18.95;;;;;;;12.60;44.59;99405.00;4992867;28;20057;-81
2023/02/22 08:24:46;;;;;;;28.10;20.48;;;;;;;12.87;44.06;99428.00;5011643;28;20026;-80
2023/02/22 08:27:12;;;;;;;23.63;15.18;;;;;;;13.04;44.15;99441.75;5006498;28;20030;-81
2023/02/22 08:29:37;;;;;;;19.60;13.73;;;;;;;13.52;43.46;99505.47;4979837;28;20057;-80
2023/02/22 08:32:03;;;;;;;23.45;14.13;;;;;;;13.27;43.24;99444.94;4972467;28;20035;-81
2023/02/22 08:34:28;;;;;;;19.70;14.40;;;;;;;13.30;42.97;99418.03;4979101;28;20482;-81
2023/02/22 08:36:54;;;;;;;24.48;18.27;;;;;;;13.90;42.22;99493.34;4991852;28;20539;-81
2023/02/22 08:39:20;;;;;;;14.80;12.20;;;;;;;13.83;41.29;99454.53;4989335;28;20022;-81
2023/02/22 08:41:45;;;;;;;16.38;11.48;;;;;;;13.43;41.11;99382.00;4989565;28;20096;-81
2023/02/22 08:44:11;;;;;;;16.23;12.15;;;;;;;14.02;40.47;99442.31;4992797;28;20455;-80
2023/02/22 08:46:37;;;;;;;13.43;9.27;;;;;;;14.07;39.98;99422.09;4981975;28;20027;-82
2023/02/22 08:49:05;;;;;;;12.40;8.15;;;;;;;14.18;39.26;99436.63;4973757;28;20037;-81
2023/02/22 08:51:34;;;;;;;10.95;8.02;;;;;;;14.51;39.05;99455.25;4980084;28;20014;-81
2023/02/22 08:53:59;;;;;;;13.10;8.80;;;;;;;14.26;38.37;99378.00;4984240;28;20069;-81
2023/02/22 08:56:25;;;;;;;12.10;10.80;;;;;;;14.61;38.22;99421.91;4988044;28;20474;-81
2023/02/22 08:58:50;;;;;;;8.65;5.35;;;;;;;14.67;37.49;99398.19;4984606;28;20037;-81
2023/02/22 09:01:15;;;;;;;11.52;8.07;;;;;;;14.72;37.19;99388.56;4992000;28;20101;-81
2023/02/22 09:03:41;;;;;;;5.85;4.82;;;;;;;14.93;36.93;99406.13;4989833;28;20026;-80
2023/02/22 09:06:06;;;;;;;5.82;2.88;;;;;;;15.05;36.35;99401.78;4989144;28;20037;-81
2023/02/22 09:08:32;;;;;;;4.13;2.67;;;;;;;15.00;35.80;99375.03;4990478;28;20123;-80
2023/02/22 09:10:57;;;;;;;5.45;3.38;;;;;;;15.66;35.37;99465.22;4982608;28;20511;-81
2023/02/22 09:13:23;;;;;;;4.78;3.65;;;;;;;14.98;35.39;99333.72;4978761;28;20525;-80
2023/02/22 09:15:48;;;;;;;9.88;6.60;;;;;;;15.72;35.13;99428.94;5009294;28;20092;-80
2023/02/22 09:18:13;;;;;;;6.05;5.18;;;;;;;15.39;34.86;99367.88;4999430;28;20026;-81
2023/02/22 09:20:40;;;;;;;9.15;5.20;;;;;;;15.57;34.86;99387.44;4988700;28;20030;-81
2023/02/22 09:23:08;;;;;;;7.05;5.45;;;;;;;16.21;34.60;99450.31;4988687;28;20504;-80
2023/02/22 09:25:34;;;;;;;4.53;3.45;;;;;;;15.91;34.48;99421.88;4983203;28;20037;-80
2023/02/22 09:28:00;;;;;;;5.45;3.13;;;;;;;16.33;34.54;99439.78;4990115;28;20109;-81
2023/02/22 09:30:33;;;;;;;9.10;4.53;;;;;;;16.49;34.45;99449.09;4989350;28;20046;-81
2023/02/22 09:33:02;;;;;;;5.78;4.93;;;;;;;16.60;34.56;99447.56;4985574;28;20021;-81
2023/02/22 09:35:27;;;;;;;6.50;4.68;;;;;;;15.91;34.16;99318.03;4983268;28;20129;-81
2023/02/22 09:37:58;;;;;;;6.97;5.50;;;;;;;16.79;34.17;99443.91;4979017;28;20533;-81
2023/02/22 09:40:28;;;;;;;8.90;5.95;;;;;;;16.80;33.92;99458.88;4974312;28;20137;-82
2023/02/22 09:43:18;;;;;;;6.70;5.30;;;;;;;16.95;33.54;99434.53;4986784;28;20030;-81
2023/02/22 09:46:21;;;;;;;7.40;4.05;;;;;;;16.43;33.14;99357.50;4990131;28;20034;-81
2023/02/22 09:49:14;;;;;;;4.78;3.10;;;;;;;16.94;32.01;99404.38;4984784;28;20056;-81
2023/02/22 09:52:01;;;;;;;5.40;3.80;;;;;;;17.18;33.33;99431.22;4991040;28;20041;-81
2023/02/22 09:54:38;;;;;;;6.07;3.28;;;;;;;17.25;32.29;99416.75;4978087;28;20055;-80
2023/02/22 09:57:08;;;;;;;5.45;3.75;;;;;;;17.35;33.11;99416.22;4983830;28;20419;-80
2023/02/22 09:59:41;;;;;;;4.68;3.55;;;;;;;16.87;31.58;99318.28;4985414;28;20038;-81
2023/02/22 10:03:05;;;;;;;4.53;2.78;;;;;;;17.54;31.47;99406.31;4985927;28;20065;-81
2023/02/22 10:05:40;;;;;;;3.97;2.60;;;;;;;17.69;32.27;99409.41;4939510;28;20047;-80
2023/02/22 10:08:15;;;;;;;5.35;2.60;;;;;;;17.82;31.93;99406.56;4935295;28;20042;-81
2023/02/22 10:10:46;;;;;;;4.55;2.05;;;;;;;17.67;31.58;99372.25;4985203;28;20042;-81
2023/02/22 10:13:14;;;;;;;3.70;2.80;;;;;;;18.00;31.57;99398.50;4986377;28;20038;-81
2023/02/22 10:15:50;;;;;;;7.03;4.65;;;;;;;17.98;31.15;99389.91;4981616;28;20723;-80
2023/02/22 10:18:38;;;;;;;3.80;2.13;;;;;;;18.23;30.97;99392.38;4984665;28;20041;-81
2023/02/22 10:21:24;;;;;;;4.32;2.28;;;;;;;18.33;29.21;99392.59;4988783;28;20192;-82
2023/02/22 10:24:09;;;;;;;2.53;1.83;;;;;;;18.41;30.04;99386.91;4995213;28;20046;-81
2023/02/22 10:26:39;;;;;;;2.65;1.83;;;;;;;17.96;30.12;99309.19;4980371;28;20027;-81
2023/02/22 10:29:38;;;;;;;4.32;1.75;;;;;;;18.64;29.53;99382.66;4989358;28;20463;-82
2023/02/22 10:32:10;;;;;;;3.10;1.80;;;;;;;18.72;29.85;99364.38;4984055;28;20040;-81
2023/02/22 10:34:52;;;;;;;8.05;4.07;;;;;;;18.71;29.42;99349.38;4982100;28;20035;-80
2023/02/22 10:37:31;;;;;;;5.90;4.45;;;;;;;18.97;28.39;99368.63;4976086;28;20031;-81
2023/02/22 10:40:22;;;;;;;6.38;4.45;;;;;;;18.81;29.26;99319.38;4977388;28;20030;-80
2023/02/22 10:42:49;;;;;;;2.80;2.40;;;;;;;18.63;29.13;99314.19;4972340;28;20027;-81
2023/02/22 10:45:31;;;;;;;2.83;1.67;;;;;;;18.55;28.31;99242.28;4990121;28;20057;-81
2023/02/22 10:47:59;;;;;;;2.25;1.90;;;;;;;19.34;28.62;99345.03;4989815;28;20037;-81
2023/02/22 10:50:30;;;;;;;6.45;2.60;;;;;;;18.70;28.59;99229.28;4980382;28;20031;-81
2023/02/22 10:52:56;;;;;;;2.20;1.90;;;;;;;18.71;28.34;99225.56;4985386;28;20034;-81
2023/02/22 10:55:21;;;;;;;3.33;1.83;;;;;;;19.53;28.14;99338.44;4990779;28;21256;-81
2023/02/22 10:57:50;;;;;;;6.70;4.38;;;;;;;19.29;28.27;99288.69;4994551;28;20515;-82
2023/02/22 11:00:19;;;;;;;2.58;1.58;;;;;;;19.67;27.84;99334.41;4979437;28;20030;-81
2023/02/22 11:03:15;;;;;;;12.45;9.95;;;;;;;19.72;27.68;99331.00;4977853;28;20110;-81
2023/02/22 11:05:41;;;;;;;6.63;4.30;;;;;;;19.78;27.92;99319.31;4995690;28;20498;-81
2023/02/22 11:08:26;;;;;;;7.93;3.58;;;;;;;19.86;27.31;99326.13;4985146;28;20026;-81
2023/02/22 11:10:55;;;;;;;3.45;2.67;;;;;;;19.63;27.80;99279.69;5001722;28;20076;-80
2023/02/22 11:13:28;;;;;;;4.40;2.60;;;;;;;20.03;27.57;99312.72;4991283;28;20024;-81
2023/02/22 11:16:25;;;;;;;4.07;2.30;;;;;;;19.97;27.17;99293.06;4991742;28;20483;-81
2023/02/22 11:19:22;;;;;;;3.60;2.53;;;;;;;20.17;27.66;99311.34;4992668;28;20162;-81
2023/02/22 11:21:51;;;;;;;6.32;3.85;;;;;;;19.87;27.39;99253.53;4989924;28;20049;-80
2023/02/22 11:24:18;;;;;;;4.47;3.88;;;;;;;20.26;27.36;99299.97;4979029;28;20033;-79
2023/02/22 11:26:50;;;;;;;5.65;3.60;;;;;;;20.31;26.87;99300.03;4979889;28;20112;-80
2023/02/22 11:29:27;;;;;;;2.42;1.80;;;;;;;20.17;26.95;99276.50;4993329;28;20423;-80
2023/02/22 11:31:54;;;;;;;8.90;6.35;;;;;;;20.15;26.89;99268.72;4993943;28;20027;-80
2023/02/22 11:34:37;;;;;;;4.32;2.58;;;;;;;19.67;26.39;99191.63;4973139;28;20034;-80
2023/02/22 11:37:17;;;;;;;3.22;2.25;;;;;;;20.34;26.26;99295.22;4988928;28;20495;-80
2023/02/22 11:39:43;;;;;;;4.10;3.00;;;;;;;20.31;26.51;99292.00;4990445;28;20113;-80